KFLO/FLO METAR and TAF weather

Enter ICAO airport designator
Station Type Date Time Source
KFLO METAR 2019/02/20 17:53 UTC NOAA

KFLO 201753Z 02007KT 4SM BR OVC004 06/04 A3022 RMK AO2 RAB1656E19B29E41 SLP234 P0002 60005 T00560044 10056 20033 58024


Station Type Date Time Source
KFLO Decoded METAR 2019/02/20 17:53 UTC NOAA

FLORENCE REGIONAL AIRPORT, SC, United States (KFLO) 34-11N 079-44W 44M
Feb 20, 2019 - 12:53 PM EST / 2019.02.20 1753 UTC
Wind: from the NNE (020 degrees) at 8 MPH (7 KT):0
Visibility: 4 mile(s):0
Sky conditions: overcast
Weather: mist
Precipitation last hour: 0.02 inches
Temperature: 42.1 F (5.6 C)
Dew Point: 39.9 F (4.4 C)
Relative Humidity: 91%
Pressure (altimeter): 30.22 in. Hg (1023 hPa)
Pressure tendency: 0.07 inches (2.4 hPa) lower than three hours ago
ob: KFLO 201753Z 02007KT 4SM BR OVC004 06/04 A3022 RMK AO2 RAB1656E19B29E41 SLP234 P0002 60005 T00560044 10056 20033 58024
cycle: 18

Station Type Date Time Source
KFLO TAF 2019/02/20 18:33 UTC NOAA

TAF KFLO 201730Z 2018/2118 02006KT 3SM -RA BR OVC003
FM202200 VRB03KT 6SM BR VCSH OVC003
FM210300 22003KT 2SM BR VCSH OVC003 WS020/22035KT
FM211100 22006KT 1 1/2SM BR VCSH OVC003
TEMPO 2111/2113 1/2SM FG
FM211500 22006KT P6SM SCT010 BKN025


Example: see airport list